createdAt,value
2022-10-22T00:00:09.478Z,78.80
2022-10-22T00:02:36.716Z,78.90
2022-10-22T00:05:04.962Z,78.95
2022-10-22T00:07:32.416Z,79.36
2022-10-22T00:09:59.614Z,79.50
2022-10-22T00:12:27.424Z,79.65
2022-10-22T00:14:54.578Z,79.49
2022-10-22T00:17:21.803Z,79.51
2022-10-22T00:19:48.996Z,79.63
2022-10-22T00:22:16.419Z,78.90
2022-10-22T00:24:43.669Z,78.53
2022-10-22T00:27:11.981Z,77.84
2022-10-22T00:29:39.147Z,77.67
2022-10-22T00:32:07.217Z,77.28
2022-10-22T00:34:34.515Z,76.49
2022-10-22T00:37:01.681Z,76.11
2022-10-22T00:39:29.483Z,75.69
2022-10-22T00:41:58.219Z,74.87
2022-10-22T00:45:03.110Z,73.95
2022-10-22T00:48:07.251Z,71.53
2022-10-22T00:50:47.906Z,70.79
2022-10-22T00:53:21.830Z,71.27
2022-10-22T00:55:53.295Z,71.33
2022-10-22T00:58:25.275Z,71.04
2022-10-22T01:00:52.655Z,70.56
2022-10-22T01:03:20.836Z,70.55
2022-10-22T01:06:03.630Z,70.90
2022-10-22T01:08:52.636Z,70.69
2022-10-22T01:12:04.496Z,70.71
2022-10-22T01:15:02.317Z,71.39
2022-10-22T01:17:50.537Z,71.89
2022-10-22T01:20:35.550Z,72.54
2022-10-22T01:23:21.307Z,72.58
2022-10-22T01:25:57.262Z,72.05
2022-10-22T01:28:45.867Z,71.70
2022-10-22T01:31:16.548Z,72.07
2022-10-22T01:33:46.893Z,71.55
2022-10-22T01:36:16.591Z,71.88
2022-10-22T01:38:46.123Z,71.65
2022-10-22T01:41:14.266Z,72.31
2022-10-22T01:43:41.386Z,72.69
2022-10-22T01:46:11.382Z,73.16
2022-10-22T01:49:05.929Z,74.14
2022-10-22T01:51:41.839Z,75.90
2022-10-22T01:54:17.757Z,76.54
2022-10-22T01:57:04.651Z,77.00
2022-10-22T01:59:50.164Z,77.41
2022-10-22T02:02:41.061Z,77.34
2022-10-22T02:05:16.687Z,78.38
2022-10-22T02:07:50.026Z,78.25
2022-10-22T02:10:17.891Z,79.80
2022-10-22T02:12:48.553Z,80.71
2022-10-22T02:15:18.814Z,80.84
2022-10-22T02:17:46.954Z,81.80
2022-10-22T02:20:22.097Z,82.32
2022-10-22T02:22:49.938Z,82.00
2022-10-22T02:25:17.523Z,81.53
2022-10-22T02:27:54.252Z,80.52
2022-10-22T02:30:22.964Z,79.90
2022-10-22T02:32:49.989Z,80.72
2022-10-22T02:35:22.393Z,80.47
2022-10-22T02:37:51.127Z,79.88
2022-10-22T02:40:18.965Z,79.42
2022-10-22T02:42:48.850Z,79.04
2022-10-22T02:45:18.337Z,79.29
2022-10-22T02:47:46.065Z,79.52
2022-10-22T02:50:13.606Z,79.24
2022-10-22T02:52:41.302Z,79.55
2022-10-22T02:55:09.108Z,79.29
2022-10-22T02:57:36.337Z,79.69
2022-10-22T03:00:05.926Z,79.43
2022-10-22T03:02:33.150Z,79.43
2022-10-22T03:05:01.017Z,79.54
2022-10-22T03:07:28.180Z,80.55
2022-10-22T03:09:55.277Z,80.49
2022-10-22T03:12:22.427Z,80.87
2022-10-22T03:14:49.575Z,80.66
2022-10-22T03:17:16.736Z,80.74
2022-10-22T03:19:43.841Z,80.89
2022-10-22T03:22:18.119Z,80.47
2022-10-22T03:24:48.023Z,78.58
2022-10-22T03:27:18.482Z,77.69
2022-10-22T03:29:46.928Z,74.81
2022-10-22T03:32:14.063Z,73.30
2022-10-22T03:34:41.162Z,73.20
2022-10-22T03:37:08.322Z,72.44
2022-10-22T03:39:36.439Z,71.88
2022-10-22T03:42:05.600Z,71.71
2022-10-22T03:44:33.566Z,71.60
2022-10-22T03:47:02.618Z,71.87
2022-10-22T03:49:30.341Z,71.40
2022-10-22T03:51:57.545Z,72.09
2022-10-22T03:54:24.796Z,72.63
2022-10-22T03:56:51.960Z,72.33
2022-10-22T03:59:19.078Z,72.78
2022-10-22T04:01:46.195Z,72.76
2022-10-22T04:04:13.290Z,72.77
2022-10-22T04:06:40.382Z,72.38
2022-10-22T04:09:07.629Z,72.41
2022-10-22T04:11:34.751Z,72.59
2022-10-22T04:14:01.926Z,73.84
2022-10-22T04:16:31.383Z,73.86
2022-10-22T04:18:58.923Z,74.03
2022-10-22T04:21:26.053Z,73.60
2022-10-22T04:23:53.575Z,74.26
2022-10-22T04:26:21.041Z,74.25
2022-10-22T04:28:50.857Z,74.04
2022-10-22T04:31:20.348Z,73.89
2022-10-22T04:33:47.931Z,73.56
2022-10-22T04:36:17.906Z,73.96
2022-10-22T04:38:46.845Z,73.46
2022-10-22T04:41:15.700Z,74.12
2022-10-22T04:43:43.402Z,73.17
2022-10-22T04:46:12.029Z,72.60
2022-10-22T04:48:41.795Z,72.61
2022-10-22T04:51:11.911Z,73.12
2022-10-22T04:53:40.506Z,73.35
2022-10-22T04:56:16.799Z,73.84
2022-10-22T04:58:44.095Z,74.51
2022-10-22T05:01:12.759Z,75.07
2022-10-22T05:03:40.197Z,74.98
2022-10-22T05:06:08.483Z,74.90
2022-10-22T05:08:35.800Z,75.02
2022-10-22T05:11:11.179Z,74.71
2022-10-22T05:13:38.740Z,74.21
2022-10-22T05:16:06.356Z,75.38
2022-10-22T05:18:37.950Z,75.84
2022-10-22T05:21:09.398Z,76.18
2022-10-22T05:23:36.566Z,76.02
2022-10-22T05:26:04.990Z,76.55
2022-10-22T05:28:32.808Z,76.62
2022-10-22T05:31:01.180Z,77.45
2022-10-22T05:33:30.437Z,77.36
2022-10-22T05:35:57.901Z,78.11
2022-10-22T05:38:25.442Z,78.67
2022-10-22T05:41:06.185Z,78.78
2022-10-22T05:43:34.329Z,78.70
2022-10-22T05:46:09.574Z,78.39
2022-10-22T05:48:37.448Z,77.58
2022-10-22T05:51:11.134Z,77.21
2022-10-22T05:53:40.919Z,77.08
2022-10-22T05:56:12.249Z,76.21
2022-10-22T05:58:39.651Z,75.89
2022-10-22T06:01:14.939Z,76.25
2022-10-22T06:03:42.505Z,77.20
2022-10-22T06:06:30.389Z,76.92
2022-10-22T06:09:21.284Z,76.69
2022-10-22T06:11:49.330Z,77.07
2022-10-22T06:14:17.854Z,77.12
2022-10-22T06:16:45.095Z,77.36
2022-10-22T06:19:14.667Z,77.48
2022-10-22T06:21:42.377Z,77.97
2022-10-22T06:24:10.455Z,78.14
2022-10-22T06:26:38.059Z,78.77
2022-10-22T06:29:05.683Z,78.85
2022-10-22T06:31:36.739Z,78.99
2022-10-22T06:34:08.027Z,78.81
2022-10-22T06:36:35.404Z,78.81
2022-10-22T06:39:03.727Z,78.44
2022-10-22T06:41:31.245Z,77.80
2022-10-22T06:43:58.406Z,77.71
2022-10-22T06:46:26.345Z,77.13
2022-10-22T06:49:02.408Z,75.84
2022-10-22T06:51:29.857Z,74.94
2022-10-22T06:53:58.239Z,73.80
2022-10-22T06:56:27.738Z,73.28
2022-10-22T06:58:56.602Z,71.24
2022-10-22T07:01:31.255Z,71.06
2022-10-22T07:03:58.773Z,71.06
2022-10-22T07:06:27.428Z,70.64
2022-10-22T07:08:56.337Z,69.51
2022-10-22T07:11:29.213Z,69.03
2022-10-22T07:13:58.666Z,69.32
2022-10-22T07:16:29.657Z,68.60
2022-10-22T07:18:58.287Z,68.43
2022-10-22T07:21:26.163Z,67.96
2022-10-22T07:23:53.460Z,67.87
2022-10-22T07:26:20.955Z,68.07
2022-10-22T07:28:48.543Z,67.68
2022-10-22T07:31:16.867Z,67.82
2022-10-22T07:33:44.915Z,68.42
2022-10-22T07:36:17.514Z,68.63
2022-10-22T07:38:54.407Z,68.25
2022-10-22T07:41:21.542Z,67.84
2022-10-22T07:43:48.638Z,67.84
2022-10-22T07:46:15.898Z,68.82
2022-10-22T07:48:42.998Z,68.85
2022-10-22T07:51:10.397Z,68.08
2022-10-22T07:53:37.955Z,68.24
2022-10-22T07:56:05.747Z,68.85
2022-10-22T07:58:33.397Z,66.96
2022-10-22T08:01:02.204Z,67.36
2022-10-22T08:03:29.696Z,66.54
2022-10-22T08:05:57.278Z,66.26
2022-10-22T08:08:27.127Z,65.63
2022-10-22T08:10:59.272Z,65.75
2022-10-22T08:13:27.521Z,65.22
2022-10-22T08:15:57.384Z,64.58
2022-10-22T08:18:25.453Z,63.17
2022-10-22T08:20:53.179Z,64.13
2022-10-22T08:23:24.490Z,63.72
2022-10-22T08:25:57.425Z,64.39
2022-10-22T08:28:24.668Z,63.95
2022-10-22T08:30:51.785Z,63.38
2022-10-22T08:33:18.902Z,64.32
2022-10-22T08:35:50.544Z,63.69
2022-10-22T08:38:19.032Z,64.65
2022-10-22T08:40:53.939Z,64.25
2022-10-22T08:43:39.814Z,63.84
2022-10-22T08:46:31.388Z,63.95
2022-10-22T08:49:04.483Z,64.40
2022-10-22T08:51:34.513Z,63.56
2022-10-22T08:54:01.469Z,64.47
2022-10-22T08:56:29.874Z,64.03
2022-10-22T08:59:13.751Z,63.42
2022-10-22T09:01:48.975Z,63.47
2022-10-22T09:04:25.523Z,63.89
2022-10-22T09:06:55.191Z,63.61
2022-10-22T09:09:27.049Z,63.49
2022-10-22T09:11:56.649Z,62.78
2022-10-22T09:14:25.887Z,62.17
2022-10-22T09:17:05.047Z,62.89
2022-10-22T09:19:48.284Z,62.99
2022-10-22T09:22:31.963Z,61.35
2022-10-22T09:25:13.919Z,61.60
2022-10-22T09:27:41.230Z,62.11
2022-10-22T09:30:20.755Z,62.43
2022-10-22T09:33:00.078Z,62.02
2022-10-22T09:35:27.479Z,61.62
2022-10-22T09:37:56.860Z,61.05
2022-10-22T09:40:26.187Z,62.29
2022-10-22T09:42:53.278Z,61.22
2022-10-22T09:45:29.106Z,61.91
2022-10-22T09:48:14.321Z,61.92
2022-10-22T09:50:46.514Z,61.34
2022-10-22T09:53:26.698Z,61.10
2022-10-22T09:55:57.721Z,61.31
2022-10-22T09:58:25.773Z,61.26
2022-10-22T10:00:56.406Z,60.32
2022-10-22T10:03:28.146Z,60.70
2022-10-22T10:06:01.591Z,62.13
2022-10-22T10:08:32.152Z,65.12
2022-10-22T10:11:33.578Z,64.41
2022-10-22T10:14:35.383Z,62.91
2022-10-22T10:17:02.419Z,63.50
2022-10-22T10:19:47.598Z,64.32
2022-10-22T10:22:25.208Z,64.67
2022-10-22T10:25:17.439Z,61.27
2022-10-22T10:27:50.269Z,61.26
2022-10-22T10:30:21.160Z,61.69
2022-10-22T10:33:06.681Z,60.01
2022-10-22T10:36:02.154Z,58.61
2022-10-22T10:38:42.491Z,59.70
2022-10-22T10:41:35.591Z,58.29
2022-10-22T10:44:29.658Z,58.52
2022-10-22T10:47:12.347Z,57.60
2022-10-22T10:49:39.470Z,60.22
2022-10-22T10:52:36.422Z,59.81
2022-10-22T10:55:30.701Z,59.24
2022-10-22T10:58:14.389Z,59.58
2022-10-22T11:00:53.816Z,57.35
2022-10-22T11:03:46.087Z,58.94
2022-10-22T11:06:19.432Z,56.71
2022-10-22T11:09:19.401Z,55.64
2022-10-22T11:12:04.383Z,57.29
2022-10-22T11:14:55.938Z,55.67
2022-10-22T11:17:26.430Z,57.74
2022-10-22T11:20:01.418Z,57.69
2022-10-22T11:22:38.361Z,55.82
2022-10-22T11:25:23.740Z,54.72
2022-10-22T11:28:07.920Z,55.83
2022-10-22T11:30:40.535Z,57.64
2022-10-22T11:33:14.942Z,56.80
2022-10-22T11:35:45.662Z,56.26
2022-10-22T11:38:17.392Z,56.34
2022-10-22T11:41:00.302Z,55.79
2022-10-22T11:43:51.390Z,54.28
2022-10-22T11:46:18.429Z,55.10
2022-10-22T11:49:02.120Z,52.77
2022-10-22T11:51:37.407Z,55.33
2022-10-22T11:54:31.396Z,52.27
2022-10-22T11:57:20.950Z,52.04
2022-10-22T11:59:48.125Z,55.54
2022-10-22T12:02:46.037Z,56.90
2022-10-22T12:05:24.951Z,59.11
2022-10-22T12:07:57.134Z,57.56
2022-10-22T12:10:34.026Z,55.96
2022-10-22T12:13:22.627Z,57.51
2022-10-22T12:15:54.242Z,59.13
2022-10-22T12:18:26.058Z,57.97
2022-10-22T12:20:54.355Z,58.05
2022-10-22T12:23:30.587Z,56.09
2022-10-22T12:25:58.151Z,57.18
2022-10-22T12:28:25.510Z,57.00
2022-10-22T12:30:52.608Z,56.46
2022-10-22T12:33:22.629Z,56.48
2022-10-22T12:35:53.934Z,56.09
2022-10-22T12:38:25.462Z,56.05
2022-10-22T12:40:55.641Z,55.15
2022-10-22T12:43:30.742Z,55.32
2022-10-22T12:45:59.680Z,53.23
2022-10-22T12:48:34.365Z,54.29
2022-10-22T12:51:04.704Z,54.76
2022-10-22T12:53:39.264Z,54.31
2022-10-22T12:56:15.897Z,54.42
2022-10-22T12:58:47.026Z,53.19
2022-10-22T13:01:17.100Z,53.46
2022-10-22T13:03:50.666Z,55.33
2022-10-22T13:06:20.517Z,55.40
2022-10-22T13:08:56.797Z,56.92
2022-10-22T13:11:23.926Z,55.73
2022-10-22T13:13:51.013Z,55.51
2022-10-22T13:16:27.764Z,56.11
2022-10-22T13:18:54.969Z,56.83
2022-10-22T13:21:26.855Z,57.61
2022-10-22T13:24:02.779Z,59.03
2022-10-22T13:26:33.401Z,59.39
2022-10-22T13:29:01.408Z,60.04
2022-10-22T13:31:33.508Z,60.40
2022-10-22T13:34:11.729Z,60.97
2022-10-22T13:36:41.133Z,61.42
2022-10-22T13:39:17.104Z,62.21
2022-10-22T13:41:44.316Z,62.54
2022-10-22T13:44:11.401Z,63.10
2022-10-22T13:46:42.637Z,63.15
2022-10-22T13:49:16.781Z,62.94
2022-10-22T13:51:44.410Z,65.41
2022-10-22T13:54:17.969Z,65.99
2022-10-22T13:56:45.316Z,65.14
2022-10-22T13:59:12.710Z,65.48
2022-10-22T14:01:40.086Z,65.79
2022-10-22T14:04:10.645Z,65.23
2022-10-22T14:06:37.833Z,64.63
2022-10-22T14:09:13.985Z,65.07
2022-10-22T14:11:41.410Z,63.45
2022-10-22T14:14:09.197Z,62.93
2022-10-22T14:16:37.581Z,63.03
2022-10-22T14:19:07.582Z,64.84
2022-10-22T14:21:37.296Z,67.10
2022-10-22T14:24:07.102Z,66.44
2022-10-22T14:26:36.620Z,68.45
2022-10-22T14:29:09.353Z,67.89
2022-10-22T14:34:10.799Z,65.93
2022-10-22T14:36:37.937Z,64.50
2022-10-22T14:39:05.036Z,64.23
2022-10-22T14:41:32.265Z,64.90
2022-10-22T14:43:59.855Z,64.67
2022-10-22T14:46:27.114Z,65.33
2022-10-22T14:48:54.198Z,66.51
2022-10-22T14:51:21.887Z,65.89
2022-10-22T14:53:49.427Z,66.20
2022-10-22T14:56:21.172Z,67.53
2022-10-22T14:58:49.010Z,69.38
2022-10-22T15:01:16.585Z,70.34
2022-10-22T15:03:43.698Z,71.07
2022-10-22T15:06:10.937Z,70.99
2022-10-22T15:08:38.211Z,71.20
2022-10-22T15:11:07.542Z,69.22
2022-10-22T15:13:35.411Z,69.71
2022-10-22T15:16:09.662Z,67.27
2022-10-22T15:18:37.136Z,68.23
2022-10-22T15:21:13.200Z,68.92
2022-10-22T15:23:40.654Z,68.95
2022-10-22T15:26:09.546Z,69.21
2022-10-22T15:28:38.103Z,70.46
2022-10-22T15:31:06.583Z,70.41
2022-10-22T15:33:34.162Z,70.87
2022-10-22T15:36:15.449Z,71.31
2022-10-22T15:38:42.639Z,72.11
2022-10-22T15:41:12.575Z,72.49
2022-10-22T15:43:39.686Z,72.30
2022-10-22T15:46:13.309Z,72.73
2022-10-22T15:48:41.237Z,73.22
2022-10-22T15:51:10.400Z,73.44
2022-10-22T15:53:37.743Z,72.92
2022-10-22T15:56:05.292Z,73.65
2022-10-22T15:58:32.935Z,73.63
2022-10-22T16:01:08.410Z,74.11
2022-10-22T16:03:36.425Z,74.48
2022-10-22T16:06:04.857Z,74.54
2022-10-22T16:08:32.572Z,75.09
2022-10-22T16:10:59.949Z,75.43
2022-10-22T16:13:27.563Z,76.02
2022-10-22T16:15:54.762Z,76.23
2022-10-22T16:18:23.533Z,76.76
2022-10-22T16:20:50.763Z,77.50
2022-10-22T16:23:19.062Z,79.48
2022-10-22T16:25:46.659Z,80.57
2022-10-22T16:28:14.615Z,80.78
2022-10-22T16:30:42.104Z,81.12
2022-10-22T16:33:10.617Z,81.50
2022-10-22T16:35:42.390Z,81.37
2022-10-22T16:38:10.976Z,81.02
2022-10-22T16:40:38.483Z,81.67
2022-10-22T16:43:05.810Z,82.21
2022-10-22T16:45:32.968Z,83.50
2022-10-22T16:48:00.091Z,83.49
2022-10-22T16:50:27.600Z,82.58
2022-10-22T16:52:54.811Z,82.68
2022-10-22T16:55:21.922Z,81.78
2022-10-22T16:57:53.328Z,81.14
2022-10-22T17:00:21.341Z,82.00
2022-10-22T17:02:53.315Z,81.51
2022-10-22T17:05:21.248Z,81.09
2022-10-22T17:07:48.724Z,81.14
2022-10-22T17:10:19.251Z,80.88
2022-10-22T17:12:47.367Z,80.46
2022-10-22T17:15:15.061Z,80.01
2022-10-22T17:17:42.270Z,79.84
2022-10-22T17:20:11.310Z,79.83
2022-10-22T17:22:38.536Z,80.22
2022-10-22T17:25:15.114Z,80.52
2022-10-22T17:27:44.215Z,80.32
2022-10-22T17:30:23.298Z,80.75
2022-10-22T17:32:53.877Z,80.87
2022-10-22T17:35:21.038Z,80.92
2022-10-22T17:37:48.380Z,80.95
2022-10-22T17:40:15.738Z,81.15
2022-10-22T17:42:43.267Z,81.03
2022-10-22T17:45:10.502Z,81.37
2022-10-22T17:47:37.660Z,82.63
2022-10-22T17:50:04.991Z,82.80
2022-10-22T17:52:32.097Z,83.29
2022-10-22T17:54:59.247Z,83.61
2022-10-22T17:57:26.362Z,84.04
2022-10-22T17:59:53.513Z,84.55
2022-10-22T18:02:20.640Z,85.01
2022-10-22T18:04:51.223Z,84.80
2022-10-22T18:07:18.410Z,85.64
2022-10-22T18:09:45.531Z,85.77
2022-10-22T18:12:13.727Z,85.96
2022-10-22T18:14:41.033Z,85.96
2022-10-22T18:17:08.382Z,86.09
2022-10-22T18:19:35.596Z,86.25
2022-10-22T18:22:02.765Z,86.33
2022-10-22T18:24:29.918Z,86.55
2022-10-22T18:26:57.063Z,86.55
2022-10-22T18:29:43.142Z,86.79
2022-10-22T18:32:13.152Z,86.77
2022-10-22T18:34:40.499Z,86.83
2022-10-22T18:37:07.677Z,86.51
2022-10-22T18:39:34.864Z,86.38
2022-10-22T18:42:06.123Z,86.38
2022-10-22T18:44:34.577Z,86.26
2022-10-22T18:47:01.683Z,86.22
2022-10-22T18:49:28.871Z,86.42
2022-10-22T18:51:56.037Z,86.47
2022-10-22T18:54:24.392Z,86.94
2022-10-22T18:57:00.554Z,86.79
2022-10-22T18:59:30.025Z,86.73
2022-10-22T19:02:00.275Z,87.08
2022-10-22T19:04:33.033Z,87.25
2022-10-22T19:07:00.267Z,87.76
2022-10-22T19:09:27.450Z,88.36
2022-10-22T19:11:54.525Z,89.02
2022-10-22T19:14:22.131Z,89.05
2022-10-22T19:16:49.578Z,89.22
2022-10-22T19:19:19.203Z,89.40
2022-10-22T19:21:47.033Z,90.26
2022-10-22T19:24:15.892Z,90.49
2022-10-22T19:26:44.067Z,90.92
2022-10-22T19:29:11.186Z,90.87
2022-10-22T19:31:38.479Z,90.82
2022-10-22T19:34:05.566Z,90.70
2022-10-22T19:36:32.878Z,90.77
2022-10-22T19:39:00.407Z,91.11
2022-10-22T19:41:29.408Z,91.07
2022-10-22T19:43:57.976Z,90.96
2022-10-22T19:46:26.162Z,91.04
2022-10-22T19:48:54.172Z,91.39
2022-10-22T19:51:24.226Z,91.98
2022-10-22T19:53:58.133Z,91.25
2022-10-22T19:56:25.374Z,91.21
2022-10-22T19:58:52.563Z,92.21
2022-10-22T20:01:20.616Z,92.75
2022-10-22T20:03:48.849Z,92.44
2022-10-22T20:06:17.646Z,92.86
2022-10-22T20:08:45.427Z,93.14
2022-10-22T20:11:18.663Z,93.65
2022-10-22T20:13:49.675Z,93.92
2022-10-22T20:16:22.933Z,93.82
2022-10-22T20:18:53.027Z,94.23
2022-10-22T20:21:20.635Z,94.05
2022-10-22T20:23:51.398Z,94.05
2022-10-22T20:26:18.875Z,94.39
2022-10-22T20:28:45.999Z,94.24
2022-10-22T20:31:16.847Z,94.51
2022-10-22T20:33:44.008Z,94.90
2022-10-22T20:36:17.807Z,94.57
2022-10-22T20:38:47.918Z,94.59
2022-10-22T20:41:20.739Z,94.80
2022-10-22T20:43:49.482Z,95.15
2022-10-22T20:46:18.123Z,95.39
2022-10-22T20:48:45.415Z,95.50
2022-10-22T20:51:12.784Z,95.42
2022-10-22T20:53:39.927Z,95.52
2022-10-22T20:56:07.158Z,95.26
2022-10-22T20:58:34.363Z,95.02
2022-10-22T21:01:10.019Z,95.22
2022-10-22T21:03:37.927Z,95.54
2022-10-22T21:06:06.151Z,95.54
2022-10-22T21:08:33.281Z,96.04
2022-10-22T21:11:00.422Z,95.93
2022-10-22T21:13:27.530Z,96.27
2022-10-22T21:15:54.627Z,96.61
2022-10-22T21:18:21.751Z,96.34
2022-10-22T21:20:48.822Z,96.00
2022-10-22T21:23:16.004Z,95.70
2022-10-22T21:25:53.135Z,95.64
2022-10-22T21:28:20.438Z,95.60
2022-10-22T21:30:47.586Z,95.42
2022-10-22T21:33:14.770Z,95.29
2022-10-22T21:35:50.142Z,95.40
2022-10-22T21:38:17.255Z,95.10
2022-10-22T21:40:44.482Z,95.13
2022-10-22T21:43:11.593Z,94.72
2022-10-22T21:45:38.999Z,93.93
2022-10-22T21:48:06.359Z,94.68
2022-10-22T21:50:33.749Z,94.47
2022-10-22T21:53:00.827Z,94.44
2022-10-22T21:55:27.979Z,95.07
2022-10-22T21:57:55.055Z,95.12
2022-10-22T22:00:22.247Z,95.22
2022-10-22T22:02:49.341Z,95.43
2022-10-22T22:05:17.375Z,95.62
2022-10-22T22:07:44.474Z,95.97
2022-10-22T22:10:11.598Z,96.13
2022-10-22T22:12:38.845Z,96.65
2022-10-22T22:15:06.870Z,97.22
2022-10-22T22:17:34.070Z,97.37
2022-10-22T22:20:01.234Z,97.54
2022-10-22T22:22:29.726Z,97.94
2022-10-22T22:24:56.823Z,97.99
2022-10-22T22:27:23.928Z,97.91
2022-10-22T22:29:51.021Z,97.64
2022-10-22T22:32:18.122Z,97.89
2022-10-22T22:34:45.246Z,97.96
2022-10-22T22:37:12.371Z,98.14
2022-10-22T22:39:39.498Z,98.35
2022-10-22T22:42:06.630Z,98.59
2022-10-22T22:44:33.715Z,98.72
2022-10-22T22:47:00.960Z,98.68
2022-10-22T22:49:28.149Z,99.06
2022-10-22T22:51:55.327Z,99.64
2022-10-22T22:54:22.439Z,100.00
2022-10-22T22:56:50.161Z,100.00
2022-10-22T22:59:17.291Z,100.00
2022-10-22T23:01:45.372Z,100.00
2022-10-22T23:04:16.383Z,100.00
2022-10-22T23:06:43.567Z,100.00
2022-10-22T23:09:13.050Z,100.00
2022-10-22T23:11:42.187Z,100.00
2022-10-22T23:14:12.471Z,100.00
2022-10-22T23:16:45.326Z,100.00
2022-10-22T23:19:14.567Z,100.00
2022-10-22T23:21:46.155Z,100.00
2022-10-22T23:24:16.537Z,100.00
2022-10-22T23:26:46.891Z,100.00
2022-10-22T23:29:15.892Z,100.00
2022-10-22T23:31:44.354Z,100.00
2022-10-22T23:34:16.071Z,100.00
2022-10-22T23:36:43.262Z,100.00
2022-10-22T23:39:13.602Z,100.00
2022-10-22T23:41:40.950Z,100.00
2022-10-22T23:44:09.588Z,100.00
2022-10-22T23:46:38.471Z,100.00
2022-10-22T23:49:07.461Z,100.00
2022-10-22T23:51:35.127Z,100.00
2022-10-22T23:54:05.266Z,100.00
2022-10-22T23:56:33.344Z,100.00
2022-10-22T23:59:00.506Z,100.00
